sensor_id;sensor_type;location;lat;lon;timestamp;pressure;altitude;pressure_sealevel;temperature;humidity
27202;BME280;14717;46.924;15.474;2024-02-23T00:02:24;96220.81;;;11.06;82.90
27202;BME280;14717;46.924;15.474;2024-02-23T00:04:50;96216.75;;;11.04;83.32
27202;BME280;14717;46.924;15.474;2024-02-23T00:07:15;96213.50;;;11.02;83.68
27202;BME280;14717;46.924;15.474;2024-02-23T00:09:40;96214.19;;;10.99;84.52
27202;BME280;14717;46.924;15.474;2024-02-23T00:12:06;96201.84;;;10.97;84.21
27202;BME280;14717;46.924;15.474;2024-02-23T00:14:33;96203.75;;;11.04;83.50
27202;BME280;14717;46.924;15.474;2024-02-23T00:17:02;96209.63;;;11.03;84.14
27202;BME280;14717;46.924;15.474;2024-02-23T00:19:29;96198.56;;;11.03;84.34
27202;BME280;14717;46.924;15.474;2024-02-23T00:21:55;96200.88;;;11.01;84.57
27202;BME280;14717;46.924;15.474;2024-02-23T00:24:20;96197.19;;;11.09;83.79
27202;BME280;14717;46.924;15.474;2024-02-23T00:26:46;96190.75;;;11.05;84.97
27202;BME280;14717;46.924;15.474;2024-02-23T00:29:12;96194.63;;;11.04;84.44
27202;BME280;14717;46.924;15.474;2024-02-23T00:31:38;96182.78;;;11.03;84.85
27202;BME280;14717;46.924;15.474;2024-02-23T00:34:06;96198.09;;;11.01;85.30
27202;BME280;14717;46.924;15.474;2024-02-23T00:36:44;96188.19;;;11.00;85.49
27202;BME280;14717;46.924;15.474;2024-02-23T00:39:10;96193.72;;;11.00;84.68
27202;BME280;14717;46.924;15.474;2024-02-23T00:41:35;96191.41;;;11.02;84.95
27202;BME280;14717;46.924;15.474;2024-02-23T00:44:02;96193.97;;;11.07;84.22
27202;BME280;14717;46.924;15.474;2024-02-23T00:46:27;96196.94;;;11.02;85.37
27202;BME280;14717;46.924;15.474;2024-02-23T00:48:53;96205.88;;;10.99;85.25
27202;BME280;14717;46.924;15.474;2024-02-23T00:51:19;96204.75;;;11.00;85.09
27202;BME280;14717;46.924;15.474;2024-02-23T00:53:45;96201.06;;;10.96;85.90
27202;BME280;14717;46.924;15.474;2024-02-23T00:56:10;96198.31;;;10.96;85.16
27202;BME280;14717;46.924;15.474;2024-02-23T00:58:35;96216.00;;;10.95;85.43
27202;BME280;14717;46.924;15.474;2024-02-23T01:01:01;96203.13;;;10.99;84.78
27202;BME280;14717;46.924;15.474;2024-02-23T01:03:26;96208.66;;;10.99;85.03
27202;BME280;14717;46.924;15.474;2024-02-23T01:05:52;96204.16;;;10.95;85.59
27202;BME280;14717;46.924;15.474;2024-02-23T01:08:17;96204.50;;;10.93;85.90
27202;BME280;14717;46.924;15.474;2024-02-23T01:10:43;96205.41;;;10.97;84.88
27202;BME280;14717;46.924;15.474;2024-02-23T01:13:08;96196.47;;;11.00;85.67
27202;BME280;14717;46.924;15.474;2024-02-23T01:15:34;96199.09;;;10.97;85.61
27202;BME280;14717;46.924;15.474;2024-02-23T01:17:59;96209.34;;;10.96;86.62
27202;BME280;14717;46.924;15.474;2024-02-23T01:20:24;96217.84;;;10.91;87.20
27202;BME280;14717;46.924;15.474;2024-02-23T01:22:50;96219.16;;;10.85;89.05
27202;BME280;14717;46.924;15.474;2024-02-23T01:25:15;96214.97;;;10.79;89.66
27202;BME280;14717;46.924;15.474;2024-02-23T01:27:41;96217.44;;;10.72;91.27
27202;BME280;14717;46.924;15.474;2024-02-23T01:30:07;96220.41;;;10.67;92.50
27202;BME280;14717;46.924;15.474;2024-02-23T01:32:33;96214.59;;;10.61;92.70
27202;BME280;14717;46.924;15.474;2024-02-23T01:34:58;96225.16;;;10.59;93.89
27202;BME280;14717;46.924;15.474;2024-02-23T01:37:24;96238.69;;;10.52;94.66
27202;BME280;14717;46.924;15.474;2024-02-23T01:39:49;96233.84;;;10.49;95.57
27202;BME280;14717;46.924;15.474;2024-02-23T01:42:14;96243.91;;;10.45;95.51
27202;BME280;14717;46.924;15.474;2024-02-23T01:44:40;96237.91;;;10.43;95.82
27202;BME280;14717;46.924;15.474;2024-02-23T01:47:05;96236.50;;;10.37;97.08
27202;BME280;14717;46.924;15.474;2024-02-23T01:49:31;96231.44;;;10.39;95.66
27202;BME280;14717;46.924;15.474;2024-02-23T01:52:00;96229.94;;;10.41;95.74
27202;BME280;14717;46.924;15.474;2024-02-23T01:54:25;96229.63;;;10.43;94.63
27202;BME280;14717;46.924;15.474;2024-02-23T01:56:53;96225.25;;;10.42;95.30
27202;BME280;14717;46.924;15.474;2024-02-23T01:59:19;96220.72;;;10.37;94.98
27202;BME280;14717;46.924;15.474;2024-02-23T02:01:45;96219.06;;;10.45;91.99
27202;BME280;14717;46.924;15.474;2024-02-23T02:04:10;96209.63;;;10.46;91.31
27202;BME280;14717;46.924;15.474;2024-02-23T02:06:36;96213.06;;;10.43;91.64
27202;BME280;14717;46.924;15.474;2024-02-23T02:09:02;96203.31;;;10.45;90.25
27202;BME280;14717;46.924;15.474;2024-02-23T02:11:27;96213.53;;;10.45;90.46
27202;BME280;14717;46.924;15.474;2024-02-23T02:13:53;96215.97;;;10.46;89.72
27202;BME280;14717;46.924;15.474;2024-02-23T02:16:18;96215.31;;;10.49;89.29
27202;BME280;14717;46.924;15.474;2024-02-23T02:18:43;96205.38;;;10.48;88.31
27202;BME280;14717;46.924;15.474;2024-02-23T02:21:12;96201.63;;;10.53;87.11
27202;BME280;14717;46.924;15.474;2024-02-23T02:23:37;96203.75;;;10.56;86.75
27202;BME280;14717;46.924;15.474;2024-02-23T02:26:03;96209.25;;;10.56;86.22
27202;BME280;14717;46.924;15.474;2024-02-23T02:28:29;96203.09;;;10.59;86.22
27202;BME280;14717;46.924;15.474;2024-02-23T02:30:54;96202.25;;;10.58;85.32
27202;BME280;14717;46.924;15.474;2024-02-23T02:33:21;96201.13;;;10.59;85.08
27202;BME280;14717;46.924;15.474;2024-02-23T02:35:46;96201.59;;;10.61;85.01
27202;BME280;14717;46.924;15.474;2024-02-23T02:38:11;96202.94;;;10.55;84.85
27202;BME280;14717;46.924;15.474;2024-02-23T02:40:37;96202.63;;;10.57;84.39
27202;BME280;14717;46.924;15.474;2024-02-23T02:43:03;96208.13;;;10.57;84.37
27202;BME280;14717;46.924;15.474;2024-02-23T02:45:29;96203.09;;;10.59;83.85
27202;BME280;14717;46.924;15.474;2024-02-23T02:47:54;96211.69;;;10.57;84.43
27202;BME280;14717;46.924;15.474;2024-02-23T02:50:21;96206.97;;;10.58;83.31
27202;BME280;14717;46.924;15.474;2024-02-23T02:52:47;96201.44;;;10.58;83.82
27202;BME280;14717;46.924;15.474;2024-02-23T02:55:12;96209.41;;;10.59;83.17
27202;BME280;14717;46.924;15.474;2024-02-23T02:57:38;96209.25;;;10.56;83.42
27202;BME280;14717;46.924;15.474;2024-02-23T03:00:04;96211.38;;;10.59;83.13
27202;BME280;14717;46.924;15.474;2024-02-23T03:02:33;96203.09;;;10.59;83.25
27202;BME280;14717;46.924;15.474;2024-02-23T03:04:59;96216.41;;;10.57;83.07
27202;BME280;14717;46.924;15.474;2024-02-23T03:07:24;96213.16;;;10.55;83.17
27202;BME280;14717;46.924;15.474;2024-02-23T03:09:50;96217.22;;;10.57;82.73
27202;BME280;14717;46.924;15.474;2024-02-23T03:12:16;96216.06;;;10.58;82.22
27202;BME280;14717;46.924;15.474;2024-02-23T03:14:41;96208.94;;;10.57;83.04
27202;BME280;14717;46.924;15.474;2024-02-23T03:17:07;96211.69;;;10.57;82.71
27202;BME280;14717;46.924;15.474;2024-02-23T03:19:33;96215.25;;;10.58;83.33
27202;BME280;14717;46.924;15.474;2024-02-23T03:21:58;96210.06;;;10.56;83.01
27202;BME280;14717;46.924;15.474;2024-02-23T03:24:24;96209.25;;;10.56;82.65
27202;BME280;14717;46.924;15.474;2024-02-23T03:26:49;96208.59;;;10.59;82.80
27202;BME280;14717;46.924;15.474;2024-02-23T03:29:15;96214.13;;;10.59;82.47
27202;BME280;14717;46.924;15.474;2024-02-23T03:31:41;96208.47;;;10.55;82.76
27202;BME280;14717;46.924;15.474;2024-02-23T03:34:06;96207.16;;;10.53;83.12
27202;BME280;14717;46.924;15.474;2024-02-23T03:36:32;96203.75;;;10.56;83.32
27202;BME280;14717;46.924;15.474;2024-02-23T03:38:58;96211.56;;;10.54;83.59
27202;BME280;14717;46.924;15.474;2024-02-23T03:41:23;96216.94;;;10.50;83.21
27202;BME280;14717;46.924;15.474;2024-02-23T03:43:48;96219.84;;;10.54;82.30
27202;BME280;14717;46.924;15.474;2024-02-23T03:46:14;96218.53;;;10.51;83.31
27202;BME280;14717;46.924;15.474;2024-02-23T03:48:40;96226.50;;;10.53;83.14
27202;BME280;14717;46.924;15.474;2024-02-23T03:51:06;96235.44;;;10.50;83.30
27202;BME280;14717;46.924;15.474;2024-02-23T03:53:33;96234.97;;;10.48;83.00
27202;BME280;14717;46.924;15.474;2024-02-23T03:55:58;96236.59;;;10.49;83.93
27202;BME280;14717;46.924;15.474;2024-02-23T03:58:24;96236.59;;;10.49;83.84
27202;BME280;14717;46.924;15.474;2024-02-23T04:00:49;96243.25;;;10.48;83.75
27202;BME280;14717;46.924;15.474;2024-02-23T04:03:14;96229.44;;;10.48;83.79
27202;BME280;14717;46.924;15.474;2024-02-23T04:05:40;96231.41;;;10.47;83.92
27202;BME280;14717;46.924;15.474;2024-02-23T04:08:05;96243.72;;;10.50;83.67
27202;BME280;14717;46.924;15.474;2024-02-23T04:10:31;96248.28;;;10.46;84.37
27202;BME280;14717;46.924;15.474;2024-02-23T04:12:57;96247.81;;;10.44;84.49
27202;BME280;14717;46.924;15.474;2024-02-23T04:15:23;96241.28;;;10.48;84.56
27202;BME280;14717;46.924;15.474;2024-02-23T04:17:48;96249.09;;;10.46;83.75
27202;BME280;14717;46.924;15.474;2024-02-23T04:20:13;96241.47;;;10.43;84.10
27202;BME280;14717;46.924;15.474;2024-02-23T04:22:39;96248.28;;;10.46;84.05
27202;BME280;14717;46.924;15.474;2024-02-23T04:25:04;96245.53;;;10.46;83.52
27202;BME280;14717;46.924;15.474;2024-02-23T04:27:30;96254.59;;;10.46;83.21
27202;BME280;14717;46.924;15.474;2024-02-23T04:29:55;96250.56;;;10.44;83.56
27202;BME280;14717;46.924;15.474;2024-02-23T04:32:21;96248.16;;;10.42;83.56
27202;BME280;14717;46.924;15.474;2024-02-23T04:34:46;96255.13;;;10.40;84.05
27202;BME280;14717;46.924;15.474;2024-02-23T04:37:11;96257.88;;;10.40;84.04
27202;BME280;14717;46.924;15.474;2024-02-23T04:39:37;96254.47;;;10.43;83.63
27202;BME280;14717;46.924;15.474;2024-02-23T04:42:03;96256.56;;;10.46;83.46
27202;BME280;14717;46.924;15.474;2024-02-23T04:44:28;96271.81;;;10.43;83.23
27202;BME280;14717;46.924;15.474;2024-02-23T04:46:54;96268.28;;;10.43;83.24
27202;BME280;14717;46.924;15.474;2024-02-23T04:49:19;96268.75;;;10.45;82.68
27202;BME280;14717;46.924;15.474;2024-02-23T04:51:44;96277.72;;;10.42;83.31
27202;BME280;14717;46.924;15.474;2024-02-23T04:54:10;96278.03;;;10.40;83.59
27202;BME280;14717;46.924;15.474;2024-02-23T04:56:35;96271.22;;;10.38;83.65
27202;BME280;14717;46.924;15.474;2024-02-23T04:59:00;96270.88;;;10.39;82.53
27202;BME280;14717;46.924;15.474;2024-02-23T05:01:26;96272.00;;;10.47;82.01
27202;BME280;14717;46.924;15.474;2024-02-23T05:03:51;96273.13;;;10.46;82.75
27202;BME280;14717;46.924;15.474;2024-02-23T05:06:17;96274.59;;;10.43;82.41
27202;BME280;14717;46.924;15.474;2024-02-23T05:08:42;96264.56;;;10.39;83.17
27202;BME280;14717;46.924;15.474;2024-02-23T05:11:08;96265.19;;;10.44;81.47
27202;BME280;14717;46.924;15.474;2024-02-23T05:13:33;96276.22;;;10.44;81.92
27202;BME280;14717;46.924;15.474;2024-02-23T05:15:58;96275.59;;;10.39;83.03
27202;BME280;14717;46.924;15.474;2024-02-23T05:18:24;96269.09;;;10.35;82.63
27202;BME280;14717;46.924;15.474;2024-02-23T05:20:49;96279.34;;;10.34;83.12
27202;BME280;14717;46.924;15.474;2024-02-23T05:23:15;96284.56;;;10.27;83.76
27202;BME280;14717;46.924;15.474;2024-02-23T05:25:41;96279.84;;;10.28;82.81
27202;BME280;14717;46.924;15.474;2024-02-23T05:28:07;96276.44;;;10.31;82.96
27202;BME280;14717;46.924;15.474;2024-02-23T05:30:32;96269.47;;;10.25;83.21
27202;BME280;14717;46.924;15.474;2024-02-23T05:32:58;96271.09;;;10.26;82.90
27202;BME280;14717;46.924;15.474;2024-02-23T05:35:26;96276.63;;;10.26;82.44
27202;BME280;14717;46.924;15.474;2024-02-23T05:37:52;96280.03;;;10.23;82.79
27202;BME280;14717;46.924;15.474;2024-02-23T05:40:18;96276.00;;;10.20;83.05
27202;BME280;14717;46.924;15.474;2024-02-23T05:42:43;96277.91;;;10.20;82.89
27202;BME280;14717;46.924;15.474;2024-02-23T05:45:09;96270.78;;;10.19;83.37
27202;BME280;14717;46.924;15.474;2024-02-23T05:47:38;96270.31;;;10.17;83.27
27202;BME280;14717;46.924;15.474;2024-02-23T05:50:08;96266.56;;;10.21;82.78
27202;BME280;14717;46.924;15.474;2024-02-23T05:52:34;96271.59;;;10.19;82.50
27202;BME280;14717;46.924;15.474;2024-02-23T05:55:00;96277.59;;;10.21;82.71
27202;BME280;14717;46.924;15.474;2024-02-23T05:57:27;96274.22;;;10.16;83.05
27202;BME280;14717;46.924;15.474;2024-02-23T05:59:53;96270.31;;;10.17;82.67
27202;BME280;14717;46.924;15.474;2024-02-23T06:02:18;96276.00;;;10.12;83.49
27202;BME280;14717;46.924;15.474;2024-02-23T06:04:43;96275.84;;;10.09;83.84
27202;BME280;14717;46.924;15.474;2024-02-23T06:07:09;96285.13;;;10.04;84.17
27202;BME280;14717;46.924;15.474;2024-02-23T06:09:34;96294.53;;;10.03;84.23
27202;BME280;14717;46.924;15.474;2024-02-23T06:12:00;96296.81;;;10.01;84.40
27202;BME280;14717;46.924;15.474;2024-02-23T06:14:25;96301.69;;;9.96;84.80
27202;BME280;14717;46.924;15.474;2024-02-23T06:16:50;96305.09;;;9.93;85.29
27202;BME280;14717;46.924;15.474;2024-02-23T06:19:16;96301.81;;;9.91;85.34
27202;BME280;14717;46.924;15.474;2024-02-23T06:21:41;96299.38;;;9.89;85.16
27202;BME280;14717;46.924;15.474;2024-02-23T06:24:07;96299.38;;;9.89;85.47
27202;BME280;14717;46.924;15.474;2024-02-23T06:26:34;96299.22;;;9.86;86.17
27202;BME280;14717;46.924;15.474;2024-02-23T06:28:59;96302.31;;;9.84;86.77
27202;BME280;14717;46.924;15.474;2024-02-23T06:31:25;96301.63;;;9.87;86.17
27202;BME280;14717;46.924;15.474;2024-02-23T06:33:51;96304.91;;;9.89;86.01
27202;BME280;14717;46.924;15.474;2024-02-23T06:36:17;96311.88;;;9.87;86.86
27202;BME280;14717;46.924;15.474;2024-02-23T06:38:44;96301.16;;;9.85;86.45
27202;BME280;14717;46.924;15.474;2024-02-23T06:41:10;96295.16;;;9.83;86.73
27202;BME280;14717;46.924;15.474;2024-02-23T06:43:36;96299.72;;;9.79;87.62
27202;BME280;14717;46.924;15.474;2024-02-23T06:46:07;96299.06;;;9.82;87.35
27202;BME280;14717;46.924;15.474;2024-02-23T06:48:33;96306.84;;;9.80;87.27
27202;BME280;14717;46.924;15.474;2024-02-23T06:50:59;96306.19;;;9.83;87.39
27202;BME280;14717;46.924;15.474;2024-02-23T06:53:25;96304.91;;;9.89;87.22
27202;BME280;14717;46.924;15.474;2024-02-23T06:55:50;96307.16;;;9.87;87.77
27202;BME280;14717;46.924;15.474;2024-02-23T06:58:15;96303.28;;;9.88;86.97
27202;BME280;14717;46.924;15.474;2024-02-23T07:00:41;96322.59;;;9.97;87.35
27202;BME280;14717;46.924;15.474;2024-02-23T07:03:07;96313.03;;;9.94;87.09
27202;BME280;14717;46.924;15.474;2024-02-23T07:05:32;96314.00;;;9.98;87.26
27202;BME280;14717;46.924;15.474;2024-02-23T07:07:57;96313.66;;;10.08;86.84
27202;BME280;14717;46.924;15.474;2024-02-23T07:10:23;96313.16;;;10.15;86.56
27202;BME280;14717;46.924;15.474;2024-02-23T07:12:50;96315.41;;;10.21;85.95
27202;BME280;14717;46.924;15.474;2024-02-23T07:15:19;96317.69;;;10.27;85.55
27202;BME280;14717;46.924;15.474;2024-02-23T07:17:45;96310.81;;;10.33;84.49
27202;BME280;14717;46.924;15.474;2024-02-23T07:20:10;96314.91;;;10.36;85.31
27202;BME280;14717;46.924;15.474;2024-02-23T07:22:36;96314.91;;;10.36;85.32
27202;BME280;14717;46.924;15.474;2024-02-23T07:25:01;96325.28;;;10.39;85.94
27202;BME280;14717;46.924;15.474;2024-02-23T07:27:29;96327.03;;;10.43;85.05
27202;BME280;14717;46.924;15.474;2024-02-23T07:29:54;96329.78;;;10.52;83.74
27202;BME280;14717;46.924;15.474;2024-02-23T07:32:20;96315.31;;;10.55;85.19
27202;BME280;14717;46.924;15.474;2024-02-23T07:34:45;96317.41;;;10.58;84.15
27202;BME280;14717;46.924;15.474;2024-02-23T07:37:10;96330.56;;;10.61;84.17
27202;BME280;14717;46.924;15.474;2024-02-23T07:39:36;96329.91;;;10.63;84.57
27202;BME280;14717;46.924;15.474;2024-02-23T07:42:01;96334.28;;;10.64;85.60
27202;BME280;14717;46.924;15.474;2024-02-23T07:44:28;96331.66;;;10.68;84.65
27202;BME280;14717;46.924;15.474;2024-02-23T07:46:53;96323.88;;;10.70;84.22
27202;BME280;14717;46.924;15.474;2024-02-23T07:49:20;96316.88;;;10.72;84.31
27202;BME280;14717;46.924;15.474;2024-02-23T07:51:47;96332.44;;;10.77;83.36
27202;BME280;14717;46.924;15.474;2024-02-23T07:54:12;96330.03;;;10.75;83.78
27202;BME280;14717;46.924;15.474;2024-02-23T07:56:38;96333.72;;;10.79;83.66
27202;BME280;14717;46.924;15.474;2024-02-23T07:59:03;96350.81;;;10.81;84.19
27202;BME280;14717;46.924;15.474;2024-02-23T08:01:29;96357.78;;;10.79;84.49
27202;BME280;14717;46.924;15.474;2024-02-23T08:03:54;96356.50;;;10.76;84.32
27202;BME280;14717;46.924;15.474;2024-02-23T08:06:19;96350.47;;;10.74;84.97
27202;BME280;14717;46.924;15.474;2024-02-23T08:08:45;96351.47;;;10.78;82.59
27202;BME280;14717;46.924;15.474;2024-02-23T08:11:12;96353.75;;;10.76;84.56
27202;BME280;14717;46.924;15.474;2024-02-23T08:13:37;96345.13;;;10.78;82.45
27202;BME280;14717;46.924;15.474;2024-02-23T08:16:02;96339.56;;;10.86;82.00
27202;BME280;14717;46.924;15.474;2024-02-23T08:18:28;96346.31;;;10.97;82.02
27202;BME280;14717;46.924;15.474;2024-02-23T08:20:54;96356.25;;;10.98;82.29
27202;BME280;14717;46.924;15.474;2024-02-23T08:23:19;96356.91;;;10.95;82.17
27202;BME280;14717;46.924;15.474;2024-02-23T08:25:47;96353.81;;;10.97;81.91
27202;BME280;14717;46.924;15.474;2024-02-23T08:28:12;96350.72;;;10.98;81.87
27202;BME280;14717;46.924;15.474;2024-02-23T08:30:37;96345.19;;;10.98;81.10
27202;BME280;14717;46.924;15.474;2024-02-23T08:33:03;96348.44;;;11.00;79.82
27202;BME280;14717;46.924;15.474;2024-02-23T08:35:28;96347.16;;;10.98;82.27
27202;BME280;14717;46.924;15.474;2024-02-23T08:37:54;96350.53;;;11.03;79.15
27202;BME280;14717;46.924;15.474;2024-02-23T08:40:19;96343.19;;;11.07;79.42
27202;BME280;14717;46.924;15.474;2024-02-23T08:42:44;96335.38;;;11.09;78.72
27202;BME280;14717;46.924;15.474;2024-02-23T08:45:11;96326.75;;;11.10;78.61
27202;BME280;14717;46.924;15.474;2024-02-23T08:47:38;96328.53;;;11.15;78.22
27202;BME280;14717;46.924;15.474;2024-02-23T08:50:05;96327.84;;;11.18;77.88
27202;BME280;14717;46.924;15.474;2024-02-23T08:52:30;96337.75;;;11.19;78.55
27202;BME280;14717;46.924;15.474;2024-02-23T08:54:56;96345.38;;;11.22;78.23
27202;BME280;14717;46.924;15.474;2024-02-23T08:57:21;96340.69;;;11.22;77.88
27202;BME280;14717;46.924;15.474;2024-02-23T08:59:49;96340.81;;;11.26;78.22
27202;BME280;14717;46.924;15.474;2024-02-23T09:02:14;96344.84;;;11.28;78.12
27202;BME280;14717;46.924;15.474;2024-02-23T09:04:40;96350.25;;;11.25;80.11
27202;BME280;14717;46.924;15.474;2024-02-23T09:07:05;96361.03;;;11.18;81.30
27202;BME280;14717;46.924;15.474;2024-02-23T09:09:31;96354.00;;;11.20;80.97
27202;BME280;14717;46.924;15.474;2024-02-23T09:11:56;96347.81;;;11.23;79.96
27202;BME280;14717;46.924;15.474;2024-02-23T09:14:21;96354.50;;;11.22;79.58
27202;BME280;14717;46.924;15.474;2024-02-23T09:16:47;96332.03;;;11.24;79.67
27202;BME280;14717;46.924;15.474;2024-02-23T09:19:16;96337.88;;;11.31;78.87
27202;BME280;14717;46.924;15.474;2024-02-23T09:21:41;96335.28;;;11.26;80.21
27202;BME280;14717;46.924;15.474;2024-02-23T09:24:07;96347.88;;;11.15;82.36
27202;BME280;14717;46.924;15.474;2024-02-23T09:26:32;96348.25;;;11.05;83.27
27202;BME280;14717;46.924;15.474;2024-02-23T09:28:57;96351.66;;;11.02;84.06
27202;BME280;14717;46.924;15.474;2024-02-23T09:31:23;96344.41;;;10.98;84.98
27202;BME280;14717;46.924;15.474;2024-02-23T09:33:48;96347.34;;;10.93;85.12
27202;BME280;14717;46.924;15.474;2024-02-23T09:36:17;96348.94;;;10.94;85.81
27202;BME280;14717;46.924;15.474;2024-02-23T09:38:42;96350.59;;;10.95;85.82
27202;BME280;14717;46.924;15.474;2024-02-23T09:41:23;96344.91;;;10.91;86.72
27202;BME280;14717;46.924;15.474;2024-02-23T09:43:49;96361.31;;;10.96;85.67
27202;BME280;14717;46.924;15.474;2024-02-23T09:46:15;96363.38;;;10.99;85.24
27202;BME280;14717;46.924;15.474;2024-02-23T09:48:43;96370.53;;;11.00;85.18
27202;BME280;14717;46.924;15.474;2024-02-23T09:51:10;96369.72;;;11.00;85.85
27202;BME280;14717;46.924;15.474;2024-02-23T09:53:37;96360.97;;;10.98;85.78
27202;BME280;14717;46.924;15.474;2024-02-23T09:56:04;96366.50;;;10.98;86.54
27202;BME280;14717;46.924;15.474;2024-02-23T09:58:34;96370.25;;;10.93;88.43
27202;BME280;14717;46.924;15.474;2024-02-23T10:01:02;96365.88;;;10.84;88.99
27202;BME280;14717;46.924;15.474;2024-02-23T10:03:28;96372.91;;;10.81;90.46
27202;BME280;14717;46.924;15.474;2024-02-23T10:05:58;96366.69;;;10.84;89.72
27202;BME280;14717;46.924;15.474;2024-02-23T10:08:24;96367.75;;;10.71;90.59
27202;BME280;14717;46.924;15.474;2024-02-23T10:10:50;96358.97;;;10.61;90.95
27202;BME280;14717;46.924;15.474;2024-02-23T10:13:19;96361.22;;;10.67;92.84
27202;BME280;14717;46.924;15.474;2024-02-23T10:15:51;96362.88;;;10.68;93.19
27202;BME280;14717;46.924;15.474;2024-02-23T10:18:18;96354.91;;;10.67;90.80
27202;BME280;14717;46.924;15.474;2024-02-23T10:20:43;96362.22;;;10.71;89.87
27202;BME280;14717;46.924;15.474;2024-02-23T10:23:09;96362.69;;;10.73;91.37
27202;BME280;14717;46.924;15.474;2024-02-23T10:25:35;96365.31;;;10.70;91.64
27202;BME280;14717;46.924;15.474;2024-02-23T10:28:01;96354.41;;;10.73;91.03
27202;BME280;14717;46.924;15.474;2024-02-23T10:30:27;96357.97;;;10.74;90.44
27202;BME280;14717;46.924;15.474;2024-02-23T10:32:55;96359.09;;;10.73;91.11
27202;BME280;14717;46.924;15.474;2024-02-23T10:35:21;96353.25;;;10.74;88.87
27202;BME280;14717;46.924;15.474;2024-02-23T10:37:50;96342.84;;;10.80;88.02
27202;BME280;14717;46.924;15.474;2024-02-23T10:40:17;96340.41;;;10.78;88.28
27202;BME280;14717;46.924;15.474;2024-02-23T10:42:47;96346.88;;;10.82;88.78
27202;BME280;14717;46.924;15.474;2024-02-23T10:45:21;96345.75;;;10.83;89.21
27202;BME280;14717;46.924;15.474;2024-02-23T10:47:50;96333.91;;;10.83;89.06
27202;BME280;14717;46.924;15.474;2024-02-23T10:50:17;96336.13;;;10.89;88.30
27202;BME280;14717;46.924;15.474;2024-02-23T10:52:44;96330.91;;;10.96;88.21
27202;BME280;14717;46.924;15.474;2024-02-23T10:55:20;96323.56;;;11.00;89.29
27202;BME280;14717;46.924;15.474;2024-02-23T10:57:51;96338.69;;;10.94;89.01
27202;BME280;14717;46.924;15.474;2024-02-23T11:00:17;96341.97;;;10.96;87.91
27202;BME280;14717;46.924;15.474;2024-02-23T11:02:50;96334.81;;;10.95;87.94
27202;BME280;14717;46.924;15.474;2024-02-23T11:05:19;96339.56;;;10.86;89.74
27202;BME280;14717;46.924;15.474;2024-02-23T11:07:58;96329.38;;;10.78;90.88
27202;BME280;14717;46.924;15.474;2024-02-23T11:10:26;96325.81;;;10.78;91.51
27202;BME280;14717;46.924;15.474;2024-02-23T11:13:07;96328.84;;;10.85;92.30
27202;BME280;14717;46.924;15.474;2024-02-23T11:15:33;96319.78;;;10.76;92.00
27202;BME280;14717;46.924;15.474;2024-02-23T11:18:27;96320.13;;;10.66;92.64
27202;BME280;14717;46.924;15.474;2024-02-23T11:21:03;96315.81;;;10.57;92.44
27202;BME280;14717;46.924;15.474;2024-02-23T11:23:47;96319.38;;;10.57;93.65
27202;BME280;14717;46.924;15.474;2024-02-23T11:26:22;96302.34;;;10.55;93.43
27202;BME280;14717;46.924;15.474;2024-02-23T11:28:49;96304.09;;;10.60;94.43
27202;BME280;14717;46.924;15.474;2024-02-23T11:31:22;96299.56;;;10.55;92.76
27202;BME280;14717;46.924;15.474;2024-02-23T11:33:55;96297.75;;;10.59;93.67
27202;BME280;14717;46.924;15.474;2024-02-23T11:36:31;96296.13;;;10.58;92.28
27202;BME280;14717;46.924;15.474;2024-02-23T11:39:01;96307.84;;;10.55;92.85
27202;BME280;14717;46.924;15.474;2024-02-23T11:41:28;96293.88;;;10.60;92.56
27202;BME280;14717;46.924;15.474;2024-02-23T11:43:55;96284.56;;;10.64;93.73
27202;BME280;14717;46.924;15.474;2024-02-23T11:46:22;96292.00;;;10.72;92.17
27202;BME280;14717;46.924;15.474;2024-02-23T11:48:50;96291.53;;;10.70;91.71
27202;BME280;14717;46.924;15.474;2024-02-23T11:51:22;96293.66;;;10.73;92.01
27202;BME280;14717;46.924;15.474;2024-02-23T11:53:51;96289.72;;;10.74;92.01
27202;BME280;14717;46.924;15.474;2024-02-23T11:56:18;96283.06;;;10.75;93.28
27202;BME280;14717;46.924;15.474;2024-02-23T11:58:47;96278.66;;;10.74;92.75
27202;BME280;14717;46.924;15.474;2024-02-23T12:01:18;96287.16;;;10.69;91.33
27202;BME280;14717;46.924;15.474;2024-02-23T12:03:44;96279.38;;;10.71;92.57
27202;BME280;14717;46.924;15.474;2024-02-23T12:06:10;96277.41;;;10.72;93.36
27202;BME280;14717;46.924;15.474;2024-02-23T12:08:36;96259.53;;;10.69;92.70
27202;BME280;14717;46.924;15.474;2024-02-23T12:11:05;96261.13;;;10.79;92.81
27202;BME280;14717;46.924;15.474;2024-02-23T12:13:32;96260.66;;;10.77;92.77
27202;BME280;14717;46.924;15.474;2024-02-23T12:15:58;96263.59;;;10.72;93.37
27202;BME280;14717;46.924;15.474;2024-02-23T12:18:23;96254.16;;;10.73;93.53
27202;BME280;14717;46.924;15.474;2024-02-23T12:20:51;96243.78;;;10.70;94.97
27202;BME280;14717;46.924;15.474;2024-02-23T12:23:16;96237.94;;;10.71;93.85
27202;BME280;14717;46.924;15.474;2024-02-23T12:26:00;96239.03;;;10.79;94.32
27202;BME280;14717;46.924;15.474;2024-02-23T12:28:26;96245.06;;;10.72;94.23
27202;BME280;14717;46.924;15.474;2024-02-23T12:31:04;96250.41;;;10.77;94.25
27202;BME280;14717;46.924;15.474;2024-02-23T12:33:35;96242.31;;;10.72;95.06
27202;BME280;14717;46.924;15.474;2024-02-23T12:36:04;96238.41;;;10.73;94.68
27202;BME280;14717;46.924;15.474;2024-02-23T12:38:30;96219.53;;;10.75;95.31
27202;BME280;14717;46.924;15.474;2024-02-23T12:41:02;96223.44;;;10.74;95.56
27202;BME280;14717;46.924;15.474;2024-02-23T12:43:31;96218.75;;;10.75;94.97
27202;BME280;14717;46.924;15.474;2024-02-23T12:45:57;96218.44;;;10.68;95.47
27202;BME280;14717;46.924;15.474;2024-02-23T12:48:23;96206.47;;;10.64;96.40